Latest Weather Observations for Gabo Island

IDV60801

Issued at 11:35 am EST Wednesday 17 September 2014 (issued every 30 minutes, with the page automatically refreshed every 10 minutes)

About weather observations | Map of weather stations | Latest weather observations for VIC | Other Formats
Station Details ID: 084016 Name: GABO ISLAND LIGHTHOUSE Lat: -37.57 Lon: 149.92 Height: 15.2 m
Data from the previous 72 hours. | See also: Recent months at Gabo Island
Date/Time
EST
Temp
°C
App
Temp
°C
Dew
Point
Rel
Hum
%
Delta-T
°C
Wind Press
QNH
hPa
Press
MSL
hPa
Rain
since 9 am
mm
Dir
 
Spd
km/h
Gust
km/h
Spd
kts
Gust
kts
17/11:30am 15.5 7.8 5.4 51 4.8 WSW 35 48 19 26 1008.6 - 0.0
17/11:00am 15.8 6.0 5.3 49 5.0 WSW 46 56 25 30 1008.9 - 0.0
17/10:30am 15.4 6.6 5.6 52 4.7 WSW 41 50 22 27 1009.1 - 0.0
17/10:09am 14.3 5.0 5.2 54 4.3 WSW 43 61 23 33 1009.3 - 0.0
17/10:00am 14.7 7.1 5.9 55 4.2 WSW 35 50 19 27 1009.5 - 0.0
17/09:30am 14.1 6.8 7.2 63 3.4 WSW 35 43 19 23 1009.6 - 0.0
17/09:00am 13.5 4.4 6.7 63 3.3 W 44 54 24 29 1009.8 1009.8 2.0
17/08:30am 13.4 5.8 7.5 67 2.9 WSW 37 50 20 27 1010.0 - 2.0
17/08:00am 12.5 4.2 7.6 72 2.4 W 41 54 22 29 1010.0 - 2.0
17/07:30am 12.4 4.6 8.1 75 2.1 W 39 52 21 28 1009.7 - 2.0
17/07:00am 12.0 3.2 7.9 76 2.0 W 44 56 24 30 1009.3 - 2.0
17/06:30am 11.5 3.3 8.2 80 1.6 WSW 41 50 22 27 1009.5 - 2.0
17/06:00am 11.8 4.3 8.1 78 1.8 W 37 46 20 25 1009.3 1009.3 2.0
17/05:30am 11.8 3.5 7.9 77 1.9 W 41 54 22 29 1009.0 - 2.0
17/05:00am 12.0 2.1 8.4 78 1.8 WSW 50 65 27 35 1008.4 - 2.0
17/04:54am 11.9 2.8 8.3 78 1.8 WSW 46 65 25 35 1008.3 - 2.0
17/04:30am 12.2 2.9 9.0 81 1.6 WSW 48 59 26 32 1008.1 - 2.0
17/04:00am 12.1 3.6 9.3 83 1.4 WSW 44 56 24 30 1008.0 - 2.0
17/03:30am 12.4 4.1 9.4 82 1.5 WSW 43 57 23 31 1007.9 - 2.0
17/03:00am 12.8 3.0 8.8 76 2.0 WSW 50 63 27 34 1007.7 1007.6 2.0
17/02:30am 13.0 3.7 9.3 78 1.9 WSW 48 59 26 32 1007.7 - 2.0
17/02:00am 13.0 4.4 9.0 77 2.0 W 44 57 24 31 1007.7 - 2.0
17/01:30am 13.2 4.9 9.5 78 1.9 W 43 59 23 32 1008.1 - 2.0
17/01:00am 13.2 5.8 9.9 80 1.7 W 39 50 21 27 1008.2 - 2.0
17/12:30am 13.1 6.6 10.4 84 1.4 W 35 46 19 25 1008.2 - 2.0
17/12:00am 13.6 7.8 10.7 82 1.5 W 32 44 17 24 1008.1 1008.2 2.0
 
Date/Time
EST
Temp
°C
App
Temp
°C
Dew
Point
Rel
Hum
%
Delta-T
°C
Wind Press
QNH
hPa
Press
MSL
hPa
Rain
since 9 am
mm
Dir
 
Spd
km/h
Gust
km/h
Spd
kts
Gust
kts
16/11:30pm 13.5 7.2 11.0 85 1.3 WSW 35 43 19 23 1008.2 - 2.0
16/11:00pm 13.3 7.3 10.8 85 1.3 WSW 33 41 18 22 1008.5 - 2.0
16/10:30pm 13.5 6.8 11.0 85 1.3 WSW 37 46 20 25 1008.6 - 2.0
16/10:00pm 14.1 7.8 10.9 81 1.7 WSW 35 46 19 25 1008.6 - 2.0
16/09:46pm 14.1 8.7 12.1 88 1.1 WSW 32 48 17 26 1008.5 - 2.0
16/09:30pm 13.7 10.6 11.6 87 1.1 W 19 26 10 14 1008.4 - 2.0
16/09:00pm 13.5 11.5 11.4 87 1.1 WNW 13 20 7 11 1008.3 1008.3 2.0
16/08:30pm 13.3 11.7 11.6 89 0.9 WNW 11 13 6 7 1008.2 - 2.0
16/08:00pm 13.4 12.2 11.5 88 1.0 WNW 9 11 5 6 1008.1 - 2.0
16/07:30pm 13.4 11.8 11.5 88 1.0 NW 11 15 6 8 1008.0 - 2.0
16/07:00pm 14.6 13.2 13.3 92 0.7 N 13 15 7 8 1007.5 - 1.8
16/06:30pm 14.9 13.9 13.3 90 0.9 W 11 19 6 10 1007.1 - 1.0
16/06:00pm 14.9 13.5 13.5 91 0.8 NNW 13 19 7 10 1007.2 1007.2 0.8
16/05:30pm 15.0 10.7 13.2 89 1.0 NNE 28 35 15 19 1006.3 - 0.8
16/05:00pm 15.1 7.8 13.3 89 1.0 NE 44 52 24 28 1005.5 - 0.8
16/04:30pm 15.2 8.0 13.0 87 1.2 NE 43 48 23 26 1005.1 - 0.8
16/04:29pm 15.2 8.0 13.0 87 1.2 NE 43 48 23 26 1005.2 - 0.8
16/04:00pm 15.5 10.2 13.0 85 1.4 NNE 33 41 18 22 1006.4 - 0.6
16/03:30pm 15.6 8.8 13.1 85 1.4 NE 41 48 22 26 1005.8 - 0.6
16/03:00pm 16.3 8.6 13.3 82 1.7 NE 46 56 25 30 1005.4 1005.4 0.6
16/02:30pm 16.1 9.5 13.8 86 1.3 ENE 41 48 22 26 1005.6 - 0.6
16/02:00pm 15.9 9.5 13.2 84 1.5 ENE 39 46 21 25 1006.0 - 0.6
16/01:30pm 15.9 8.8 13.4 85 1.4 ENE 43 52 23 28 1006.4 - 0.6
16/01:00pm 15.8 9.9 13.5 86 1.3 ENE 37 44 20 24 1006.7 - 0.6
16/12:30pm 16.3 10.6 14.2 87 1.2 ENE 37 44 20 24 1007.2 - 0.6
16/12:00pm 16.5 10.8 14.2 86 1.3 NE 37 43 20 23 1007.6 1007.7 0.6
16/11:30am 16.0 11.2 14.6 91 0.8 NE 33 41 18 22 1008.5 - 0.6
16/11:00am 15.9 11.4 14.9 94 0.6 NE 32 35 17 19 1009.0 - 0.6
16/10:30am 15.3 10.4 14.4 94 0.5 NE 33 37 18 20 1009.3 - 0.6
16/10:00am 15.0 9.7 14.1 94 0.5 NE 35 39 19 21 1009.5 - 0.4
16/09:30am 15.0 10.0 13.9 93 0.6 NE 33 41 18 22 1010.1 - 0.2
16/09:00am 15.3 8.9 13.3 88 1.1 NE 39 46 21 25 1010.3 1010.4 6.8
16/08:30am 15.3 11.6 13.9 91 0.8 NE 26 30 14 16 1010.1 - 6.8
16/08:00am 15.2 11.2 14.0 92 0.7 NE 28 33 15 18 1009.8 - 6.8
16/07:30am 15.0 10.5 13.8 92 0.7 NE 30 35 16 19 1009.9 - 6.8
16/07:00am 15.0 10.9 13.9 93 0.6 NE 28 32 15 17 1010.0 - 6.8
16/06:30am 14.9 10.9 14.0 94 0.5 NNE 28 35 15 19 1010.5 - 6.8
16/06:00am 14.9 9.0 13.6 92 0.7 NE 37 43 20 23 1010.4 1010.4 6.8
16/05:30am 14.5 10.6 13.2 92 0.7 NNE 26 32 14 17 1010.8 - 6.6
16/05:00am 14.4 11.3 13.3 93 0.6 N 22 28 12 15 1011.1 - 6.4
16/04:30am 14.0 11.7 13.1 94 0.5 NE 17 22 9 12 1011.2 - 6.4
16/04:00am 13.5 11.5 12.8 95 0.4 NNE 15 19 8 10 1011.2 - 6.4
16/03:30am 13.7 10.5 13.2 97 0.3 NNE 22 28 12 15 1011.1 - 6.4
16/03:00am 13.9 11.1 13.2 96 0.4 NNE 20 26 11 14 1011.3 1011.4 6.4
16/02:30am 14.1 11.4 13.0 93 0.6 NNE 19 26 10 14 1012.0 - 6.4
16/02:00am 14.1 9.7 12.8 92 0.7 NE 28 32 15 17 1012.1 - 6.4
16/01:30am 14.2 9.6 12.4 89 1.0 NE 28 32 15 17 1012.8 - 6.4
16/01:00am 14.0 8.7 12.5 91 0.8 NE 32 43 17 23 1013.0 - 6.4
16/12:30am 14.0 10.1 13.3 96 0.4 NE 26 32 14 17 1013.5 - 6.0
16/12:00am 14.3 11.4 13.0 92 0.7 NNE 20 30 11 16 1013.9 1014.0 5.6
 
Date/Time
EST
Temp
°C
App
Temp
°C
Dew
Point
Rel
Hum
%
Delta-T
°C
Wind Press
QNH
hPa
Press
MSL
hPa
Rain
since 9 am
mm
Dir
 
Spd
km/h
Gust
km/h
Spd
kts
Gust
kts
15/11:30pm 14.6 12.1 12.4 87 1.2 NNE 17 26 9 14 1014.2 - 3.0
15/11:00pm 14.6 10.2 13.0 90 0.9 NE 28 33 15 18 1014.4 - 0.4
15/10:30pm 14.8 9.9 12.6 87 1.2 NE 30 35 16 19 1014.7 - 0.2
15/10:00pm 14.8 9.7 12.0 83 1.5 NE 30 35 16 19 1014.8 - 0.0
15/09:30pm 15.0 9.5 11.9 82 1.7 NE 32 35 17 19 1014.9 - 0.0
15/09:00pm 15.1 9.9 11.6 79 1.9 NE 30 33 16 18 1015.2 1015.2 0.0
15/08:30pm 15.1 10.2 11.2 77 2.1 NE 28 32 15 17 1015.3 - 0.0
15/08:00pm 15.0 10.3 10.8 76 2.2 NE 26 28 14 15 1015.4 - 0.0
15/07:30pm 15.1 10.7 10.5 74 2.4 ENE 24 28 13 15 1015.4 - 0.0
15/07:00pm 15.0 10.7 10.6 75 2.3 NE 24 28 13 15 1015.3 - 0.0
15/06:30pm 14.9 10.4 10.1 73 2.5 NE 24 28 13 15 1015.2 - 0.0
15/06:00pm 14.9 10.4 9.9 72 2.6 NE 24 26 13 14 1015.2 1015.2 0.0
15/05:30pm 14.8 10.2 9.6 71 2.7 NE 24 28 13 15 1015.2 - 0.0
15/05:00pm 14.8 10.7 10.2 74 2.4 NE 22 24 12 13 1015.0 - 0.0
15/04:30pm 14.8 11.1 10.2 74 2.4 NE 20 24 11 13 1015.1 - 0.0
15/04:00pm 14.9 11.3 9.7 71 2.7 ENE 19 22 10 12 1015.2 - 0.0
15/03:30pm 15.1 11.8 9.7 70 2.8 ENE 17 20 9 11 1015.3 - 0.0
15/03:00pm 15.1 11.8 9.7 70 2.8 ENE 17 19 9 10 1015.3 1015.3 0.0
15/02:30pm 15.2 12.2 9.4 68 3.0 E 15 17 8 9 1015.4 - 0.0
15/02:00pm 15.3 12.7 9.5 68 3.0 E 13 17 7 9 1015.5 - 0.0
15/01:30pm 15.4 13.1 8.9 65 3.3 E 11 15 6 8 1015.6 - 0.0
15/01:00pm 16.7 14.6 9.8 63 3.6 ESE 11 15 6 8 1016.0 - 0.0
15/12:30pm 16.1 14.0 9.6 65 3.4 SE 11 15 6 8 1016.4 - 0.0
15/12:00pm 16.2 13.8 9.9 66 3.3 SSE 13 15 7 8 1016.8 1016.9 0.0
15/11:30am 15.6 13.5 9.8 68 3.0 S 11 13 6 7 1017.0 - 0.0
15/11:00am 15.4 13.3 9.8 69 2.9 SSW 11 13 6 7 1017.6 - 0.0
15/10:30am 14.8 12.5 9.1 68 2.9 SW 11 13 6 7 1017.9 - 0.0
15/10:00am 15.1 12.8 9.0 67 3.1 W 11 15 6 8 1018.0 - 0.0
15/09:30am 14.9 12.0 8.3 64 3.3 W 13 15 7 8 1018.1 - 0.0
15/09:00am 14.5 11.2 8.1 65 3.2 WNW 15 17 8 9 1018.3 1018.3 0.0
15/08:30am 14.2 10.9 8.2 67 3.0 WNW 15 19 8 10 1018.3 - 0.0
15/08:00am 13.4 10.4 7.7 68 2.8 WNW 13 17 7 9 1018.2 - 0.0
15/07:30am 12.7 9.7 7.6 71 2.5 NW 13 17 7 9 1018.1 - 0.0
15/07:00am 12.0 8.9 7.4 73 2.2 NW 13 15 7 8 1017.8 - 0.0
15/06:30am 11.1 8.0 7.1 76 1.9 WNW 13 15 7 8 1017.6 - 0.0
15/06:00am 10.9 7.7 6.9 76 1.9 WNW 13 17 7 9 1017.5 1017.5 0.0
15/05:30am 10.7 7.5 6.7 76 1.9 WNW 13 17 7 9 1017.5 - 0.0
15/05:00am 10.7 7.1 6.9 77 1.8 NW 15 19 8 10 1017.4 - 0.0
15/04:30am 10.7 7.1 6.7 76 1.9 WNW 15 20 8 11 1017.5 - 0.0
15/04:00am 10.1 6.9 6.7 79 1.6 WNW 13 17 7 9 1017.6 - 0.0
15/03:30am 10.4 7.6 7.0 79 1.6 WNW 11 17 6 9 1017.7 - 0.0
15/03:00am 10.4 6.8 6.8 78 1.7 WNW 15 20 8 11 1017.7 1017.7 0.0
15/02:30am 10.2 5.9 6.8 79 1.6 WNW 19 24 10 13 1018.0 - 0.0
15/02:00am 10.4 6.4 6.8 78 1.7 WNW 17 20 9 11 1018.1 - 0.0
15/01:30am 10.6 6.3 6.8 77 1.8 WNW 19 22 10 12 1018.4 - 0.0
15/01:00am 10.7 6.4 6.9 77 1.8 WNW 19 22 10 12 1018.5 - 0.0
15/12:30am 11.2 6.9 7.0 75 2.0 WNW 19 24 10 13 1018.5 - 0.0
15/12:00am 11.2 6.9 7.2 76 1.9 WNW 19 24 10 13 1018.7 1018.7 0.0
 
Date/Time
EST
Temp
°C
App
Temp
°C
Dew
Point
Rel
Hum
%
Delta-T
°C
Wind Press
QNH
hPa
Press
MSL
hPa
Rain
since 9 am
mm
Dir
 
Spd
km/h
Gust
km/h
Spd
kts
Gust
kts
14/11:30pm 11.1 7.6 7.3 77 1.8 WNW 15 20 8 11 1018.9 - 0.0
14/11:00pm 11.2 7.3 7.2 76 1.9 WNW 17 22 9 12 1019.1 - 0.0
14/10:30pm 11.6 8.3 7.9 78 1.8 WNW 15 20 8 11 1019.1 - 0.0
14/10:00pm 11.6 7.9 7.9 78 1.8 WNW 17 20 9 11 1019.2 - 0.0
14/09:30pm 11.8 8.1 8.1 78 1.8 WNW 17 22 9 12 1019.1 - 0.0
14/09:00pm 12.8 8.3 8.4 74 2.2 W 22 28 12 15 1019.1 1019.1 0.0
14/08:30pm 13.0 8.5 8.4 73 2.3 W 22 28 12 15 1019.0 - 0.0
14/08:00pm 13.2 7.9 8.4 72 2.4 W 26 30 14 16 1018.7 - 0.0
14/07:30pm 13.5 8.1 8.0 69 2.7 WSW 26 32 14 17 1018.6 - 0.0
14/07:00pm 13.5 8.2 8.5 72 2.5 WSW 26 30 14 16 1018.5 - 0.0
14/06:30pm 13.8 8.2 8.6 71 2.6 WSW 28 33 15 18 1018.4 - 0.0
14/06:00pm 14.0 7.6 8.6 70 2.7 SW 32 35 17 19 1018.4 1018.3 0.0
14/05:30pm 14.3 7.7 8.5 68 2.9 SW 33 39 18 21 1018.2 - 0.0
14/05:00pm 14.4 7.4 8.4 67 3.0 SW 35 43 19 23 1018.1 - 0.0
14/04:30pm 14.3 6.3 7.6 64 3.3 SW 39 44 21 24 1018.1 - 0.0
14/04:00pm 14.4 6.0 7.3 62 3.5 SW 41 46 22 25 1018.1 - 0.0
14/03:30pm 14.4 5.5 7.0 61 3.6 SW 43 50 23 27 1018.1 - 0.0
14/03:00pm 14.9 5.1 7.1 59 3.8 SW 48 54 26 29 1017.9 1017.9 0.0
14/02:30pm 15.0 5.2 7.0 59 3.9 SW 48 56 26 30 1017.8 - 0.0
14/02:00pm 14.9 4.5 7.6 61 3.6 SSW 52 59 28 32 1017.6 - 0.0
14/01:30pm 15.0 5.8 8.0 63 3.5 SSW 46 54 25 29 1017.8 - 0.0
14/01:00pm 15.1 6.2 7.6 61 3.7 SSW 44 50 24 27 1017.9 - 0.0
14/12:30pm 15.2 7.2 7.5 60 3.8 SSW 39 46 21 25 1018.2 - 0.0
14/12:00pm 15.4 8.1 7.0 57 4.1 SSW 35 41 19 22 1018.7 1018.7 0.0

Other Formats:

Comma delimited format used in spreadsheet applications
http://www.bom.gov.au/fwo/IDV60801/IDV60801.94933.axf

JavaScript Object Notation format (JSON) in row-major order
http://www.bom.gov.au/fwo/IDV60801/IDV60801.94933.json